sensor_id;sensor_type;location;lat;lon;timestamp;temperature;humidity
26621;DHT22;14253;44.840;10.444;2023-04-16T00:00:36;9.30;99.90
26621;DHT22;14253;44.840;10.444;2023-04-16T00:03:02;9.40;99.90
26621;DHT22;14253;44.840;10.444;2023-04-16T00:05:28;9.40;99.90
26621;DHT22;14253;44.840;10.444;2023-04-16T00:07:54;9.40;99.90
26621;DHT22;14253;44.840;10.444;2023-04-16T00:10:20;9.40;99.90
26621;DHT22;14253;44.840;10.444;2023-04-16T00:12:45;9.40;99.90
26621;DHT22;14253;44.840;10.444;2023-04-16T00:15:11;9.50;99.90
26621;DHT22;14253;44.840;10.444;2023-04-16T00:17:37;9.50;99.90
26621;DHT22;14253;44.840;10.444;2023-04-16T00:20:04;9.50;99.90
26621;DHT22;14253;44.840;10.444;2023-04-16T00:22:30;9.40;99.90
26621;DHT22;14253;44.840;10.444;2023-04-16T00:24:56;9.30;99.90
26621;DHT22;14253;44.840;10.444;2023-04-16T00:27:22;9.20;99.90
26621;DHT22;14253;44.840;10.444;2023-04-16T00:29:47;9.20;99.90
26621;DHT22;14253;44.840;10.444;2023-04-16T00:32:13;9.10;99.90
26621;DHT22;14253;44.840;10.444;2023-04-16T00:34:39;9.10;99.90
26621;DHT22;14253;44.840;10.444;2023-04-16T00:37:05;9.00;99.90
26621;DHT22;14253;44.840;10.444;2023-04-16T00:39:31;9.10;99.90
26621;DHT22;14253;44.840;10.444;2023-04-16T00:41:57;9.10;99.90
26621;DHT22;14253;44.840;10.444;2023-04-16T00:44:23;9.10;99.90
26621;DHT22;14253;44.840;10.444;2023-04-16T00:46:49;9.10;99.90
26621;DHT22;14253;44.840;10.444;2023-04-16T00:49:15;9.00;99.90
26621;DHT22;14253;44.840;10.444;2023-04-16T00:51:41;8.90;99.90
26621;DHT22;14253;44.840;10.444;2023-04-16T00:54:07;8.80;99.90
26621;DHT22;14253;44.840;10.444;2023-04-16T00:56:34;8.90;99.90
26621;DHT22;14253;44.840;10.444;2023-04-16T00:59:01;9.00;99.90
26621;DHT22;14253;44.840;10.444;2023-04-16T01:01:27;9.00;99.90
26621;DHT22;14253;44.840;10.444;2023-04-16T01:03:53;9.00;99.90
26621;DHT22;14253;44.840;10.444;2023-04-16T01:06:21;9.00;99.90
26621;DHT22;14253;44.840;10.444;2023-04-16T01:08:47;9.00;99.90
26621;DHT22;14253;44.840;10.444;2023-04-16T01:11:14;9.00;99.90
26621;DHT22;14253;44.840;10.444;2023-04-16T01:13:41;9.10;99.90
26621;DHT22;14253;44.840;10.444;2023-04-16T01:16:08;9.00;99.90
26621;DHT22;14253;44.840;10.444;2023-04-16T01:18:34;9.10;99.90
26621;DHT22;14253;44.840;10.444;2023-04-16T01:21:02;9.00;99.90
26621;DHT22;14253;44.840;10.444;2023-04-16T01:23:29;9.00;99.90
26621;DHT22;14253;44.840;10.444;2023-04-16T01:25:54;9.00;99.90
26621;DHT22;14253;44.840;10.444;2023-04-16T01:28:21;9.00;99.90
26621;DHT22;14253;44.840;10.444;2023-04-16T01:30:47;9.10;99.90
26621;DHT22;14253;44.840;10.444;2023-04-16T01:33:35;9.10;99.90
26621;DHT22;14253;44.840;10.444;2023-04-16T01:36:01;9.10;99.90
26621;DHT22;14253;44.840;10.444;2023-04-16T01:38:27;9.00;99.90
26621;DHT22;14253;44.840;10.444;2023-04-16T01:40:56;8.90;99.90
26621;DHT22;14253;44.840;10.444;2023-04-16T01:43:24;8.90;99.90
26621;DHT22;14253;44.840;10.444;2023-04-16T01:45:51;8.90;99.90
26621;DHT22;14253;44.840;10.444;2023-04-16T01:48:18;8.90;99.90
26621;DHT22;14253;44.840;10.444;2023-04-16T01:50:43;8.80;99.90
26621;DHT22;14253;44.840;10.444;2023-04-16T01:53:09;8.80;99.90
26621;DHT22;14253;44.840;10.444;2023-04-16T01:55:35;8.70;99.90
26621;DHT22;14253;44.840;10.444;2023-04-16T01:58:01;8.80;99.90
26621;DHT22;14253;44.840;10.444;2023-04-16T02:00:32;8.70;99.90
26621;DHT22;14253;44.840;10.444;2023-04-16T02:02:58;8.80;99.90
26621;DHT22;14253;44.840;10.444;2023-04-16T02:05:26;8.80;99.90
26621;DHT22;14253;44.840;10.444;2023-04-16T02:07:52;8.70;99.90
26621;DHT22;14253;44.840;10.444;2023-04-16T02:10:18;8.60;99.90
26621;DHT22;14253;44.840;10.444;2023-04-16T02:12:44;8.60;99.90
26621;DHT22;14253;44.840;10.444;2023-04-16T02:15:12;8.70;99.90
26621;DHT22;14253;44.840;10.444;2023-04-16T02:17:38;8.70;99.90
26621;DHT22;14253;44.840;10.444;2023-04-16T02:20:08;8.60;99.90
26621;DHT22;14253;44.840;10.444;2023-04-16T02:22:40;8.50;99.90
26621;DHT22;14253;44.840;10.444;2023-04-16T02:25:09;8.40;99.90
26621;DHT22;14253;44.840;10.444;2023-04-16T02:27:35;8.30;99.90
26621;DHT22;14253;44.840;10.444;2023-04-16T02:30:16;8.30;99.90
26621;DHT22;14253;44.840;10.444;2023-04-16T02:32:43;8.30;99.90
26621;DHT22;14253;44.840;10.444;2023-04-16T02:35:09;8.30;99.90
26621;DHT22;14253;44.840;10.444;2023-04-16T02:37:35;8.30;99.90
26621;DHT22;14253;44.840;10.444;2023-04-16T02:40:01;8.30;99.90
26621;DHT22;14253;44.840;10.444;2023-04-16T02:42:27;8.30;99.90
26621;DHT22;14253;44.840;10.444;2023-04-16T02:44:53;8.30;99.90
26621;DHT22;14253;44.840;10.444;2023-04-16T02:47:19;8.20;99.90
26621;DHT22;14253;44.840;10.444;2023-04-16T02:49:45;8.10;99.90
26621;DHT22;14253;44.840;10.444;2023-04-16T02:52:11;8.10;99.90
26621;DHT22;14253;44.840;10.444;2023-04-16T02:54:37;8.00;99.90
26621;DHT22;14253;44.840;10.444;2023-04-16T02:57:03;8.10;99.90
26621;DHT22;14253;44.840;10.444;2023-04-16T02:59:28;8.00;99.90
26621;DHT22;14253;44.840;10.444;2023-04-16T03:01:57;8.00;99.90
26621;DHT22;14253;44.840;10.444;2023-04-16T03:04:23;8.00;99.90
26621;DHT22;14253;44.840;10.444;2023-04-16T03:07:02;8.00;99.90
26621;DHT22;14253;44.840;10.444;2023-04-16T03:09:28;8.00;99.90
26621;DHT22;14253;44.840;10.444;2023-04-16T03:11:53;8.00;99.90
26621;DHT22;14253;44.840;10.444;2023-04-16T03:14:19;8.10;99.90
26621;DHT22;14253;44.840;10.444;2023-04-16T03:16:46;7.80;99.90
26621;DHT22;14253;44.840;10.444;2023-04-16T03:19:11;7.60;99.90
26621;DHT22;14253;44.840;10.444;2023-04-16T03:21:37;7.40;99.90
26621;DHT22;14253;44.840;10.444;2023-04-16T03:24:03;7.10;99.90
26621;DHT22;14253;44.840;10.444;2023-04-16T03:26:29;7.20;99.90
26621;DHT22;14253;44.840;10.444;2023-04-16T03:28:56;7.20;99.90
26621;DHT22;14253;44.840;10.444;2023-04-16T03:31:25;7.30;99.90
26621;DHT22;14253;44.840;10.444;2023-04-16T03:33:52;7.30;99.90
26621;DHT22;14253;44.840;10.444;2023-04-16T03:36:18;7.30;99.90
26621;DHT22;14253;44.840;10.444;2023-04-16T03:38:47;7.30;99.90
26621;DHT22;14253;44.840;10.444;2023-04-16T03:41:13;7.20;99.90
26621;DHT22;14253;44.840;10.444;2023-04-16T03:43:39;7.20;99.90
26621;DHT22;14253;44.840;10.444;2023-04-16T03:46:05;7.20;99.90
26621;DHT22;14253;44.840;10.444;2023-04-16T03:48:31;7.20;99.90
26621;DHT22;14253;44.840;10.444;2023-04-16T03:50:57;7.30;99.90
26621;DHT22;14253;44.840;10.444;2023-04-16T03:53:23;7.30;99.90
26621;DHT22;14253;44.840;10.444;2023-04-16T03:55:50;7.30;99.90
26621;DHT22;14253;44.840;10.444;2023-04-16T03:58:18;7.30;99.90
26621;DHT22;14253;44.840;10.444;2023-04-16T04:00:46;7.40;99.90
26621;DHT22;14253;44.840;10.444;2023-04-16T04:03:13;7.40;99.90
26621;DHT22;14253;44.840;10.444;2023-04-16T04:05:45;7.30;99.90
26621;DHT22;14253;44.840;10.444;2023-04-16T04:08:14;7.40;99.90
26621;DHT22;14253;44.840;10.444;2023-04-16T04:10:41;7.40;99.90
26621;DHT22;14253;44.840;10.444;2023-04-16T04:13:09;7.40;99.90
26621;DHT22;14253;44.840;10.444;2023-04-16T04:15:35;7.50;99.90
26621;DHT22;14253;44.840;10.444;2023-04-16T04:18:01;7.50;99.90
26621;DHT22;14253;44.840;10.444;2023-04-16T04:20:27;7.50;99.90
26621;DHT22;14253;44.840;10.444;2023-04-16T04:22:53;7.50;99.90
26621;DHT22;14253;44.840;10.444;2023-04-16T04:25:22;7.40;99.90
26621;DHT22;14253;44.840;10.444;2023-04-16T04:27:48;7.20;99.90
26621;DHT22;14253;44.840;10.444;2023-04-16T04:30:14;7.10;99.90
26621;DHT22;14253;44.840;10.444;2023-04-16T04:32:41;7.00;99.90
26621;DHT22;14253;44.840;10.444;2023-04-16T04:35:08;7.00;99.90
26621;DHT22;14253;44.840;10.444;2023-04-16T04:37:34;7.00;99.90
26621;DHT22;14253;44.840;10.444;2023-04-16T04:40:08;7.00;99.90
26621;DHT22;14253;44.840;10.444;2023-04-16T04:42:35;7.10;99.90
26621;DHT22;14253;44.840;10.444;2023-04-16T04:45:01;7.10;99.90
26621;DHT22;14253;44.840;10.444;2023-04-16T04:47:30;7.30;99.90
26621;DHT22;14253;44.840;10.444;2023-04-16T04:49:56;7.40;99.90
26621;DHT22;14253;44.840;10.444;2023-04-16T04:52:22;7.40;99.90
26621;DHT22;14253;44.840;10.444;2023-04-16T04:54:49;7.30;99.90
26621;DHT22;14253;44.840;10.444;2023-04-16T04:57:15;7.40;99.90
26621;DHT22;14253;44.840;10.444;2023-04-16T04:59:42;7.20;99.90
26621;DHT22;14253;44.840;10.444;2023-04-16T05:02:09;7.10;99.90
26621;DHT22;14253;44.840;10.444;2023-04-16T05:04:35;7.00;99.90
26621;DHT22;14253;44.840;10.444;2023-04-16T05:07:01;7.20;99.90
26621;DHT22;14253;44.840;10.444;2023-04-16T05:09:27;7.20;99.90
26621;DHT22;14253;44.840;10.444;2023-04-16T05:11:53;7.20;99.90
26621;DHT22;14253;44.840;10.444;2023-04-16T05:14:19;7.30;99.90
26621;DHT22;14253;44.840;10.444;2023-04-16T05:16:45;7.40;99.90
26621;DHT22;14253;44.840;10.444;2023-04-16T05:19:11;7.40;99.90
26621;DHT22;14253;44.840;10.444;2023-04-16T05:21:36;7.40;99.90
26621;DHT22;14253;44.840;10.444;2023-04-16T05:24:02;7.40;99.90
26621;DHT22;14253;44.840;10.444;2023-04-16T05:26:28;7.40;99.90
26621;DHT22;14253;44.840;10.444;2023-04-16T05:28:54;7.40;99.90
26621;DHT22;14253;44.840;10.444;2023-04-16T05:31:20;7.50;99.90
26621;DHT22;14253;44.840;10.444;2023-04-16T05:33:46;7.70;99.90
26621;DHT22;14253;44.840;10.444;2023-04-16T05:36:12;7.90;99.90
26621;DHT22;14253;44.840;10.444;2023-04-16T05:38:38;8.00;99.90
26621;DHT22;14253;44.840;10.444;2023-04-16T05:41:04;8.10;99.90
26621;DHT22;14253;44.840;10.444;2023-04-16T05:43:30;8.00;99.90
26621;DHT22;14253;44.840;10.444;2023-04-16T05:45:56;8.10;99.90
26621;DHT22;14253;44.840;10.444;2023-04-16T05:48:22;8.00;99.90
26621;DHT22;14253;44.840;10.444;2023-04-16T05:50:48;8.00;99.90
26621;DHT22;14253;44.840;10.444;2023-04-16T05:53:15;8.00;99.90
26621;DHT22;14253;44.840;10.444;2023-04-16T05:55:43;8.20;99.90
26621;DHT22;14253;44.840;10.444;2023-04-16T05:58:09;8.40;99.90
26621;DHT22;14253;44.840;10.444;2023-04-16T06:00:35;8.50;99.90
26621;DHT22;14253;44.840;10.444;2023-04-16T06:03:01;8.60;99.90
26621;DHT22;14253;44.840;10.444;2023-04-16T06:05:30;8.50;99.90
26621;DHT22;14253;44.840;10.444;2023-04-16T06:07:58;8.60;99.90
26621;DHT22;14253;44.840;10.444;2023-04-16T06:10:27;8.80;99.90
26621;DHT22;14253;44.840;10.444;2023-04-16T06:12:55;9.00;99.90
26621;DHT22;14253;44.840;10.444;2023-04-16T06:15:21;9.30;99.90
26621;DHT22;14253;44.840;10.444;2023-04-16T06:17:46;9.40;99.90
26621;DHT22;14253;44.840;10.444;2023-04-16T06:20:12;9.80;99.90
26621;DHT22;14253;44.840;10.444;2023-04-16T06:22:38;10.00;99.90
26621;DHT22;14253;44.840;10.444;2023-04-16T06:25:04;10.00;99.90
26621;DHT22;14253;44.840;10.444;2023-04-16T06:27:31;10.60;99.90
26621;DHT22;14253;44.840;10.444;2023-04-16T06:29:57;11.20;99.90
26621;DHT22;14253;44.840;10.444;2023-04-16T06:32:23;11.70;99.90
26621;DHT22;14253;44.840;10.444;2023-04-16T06:34:49;12.30;99.90
26621;DHT22;14253;44.840;10.444;2023-04-16T06:37:15;12.80;99.90
26621;DHT22;14253;44.840;10.444;2023-04-16T06:39:41;13.30;99.90
26621;DHT22;14253;44.840;10.444;2023-04-16T06:42:07;12.90;99.90
26621;DHT22;14253;44.840;10.444;2023-04-16T06:44:34;13.00;99.90
26621;DHT22;14253;44.840;10.444;2023-04-16T06:47:00;13.50;99.90
26621;DHT22;14253;44.840;10.444;2023-04-16T06:49:26;14.10;99.90
26621;DHT22;14253;44.840;10.444;2023-04-16T06:51:52;14.00;99.90
26621;DHT22;14253;44.840;10.444;2023-04-16T06:54:17;14.30;99.90
26621;DHT22;14253;44.840;10.444;2023-04-16T06:56:44;14.30;99.90
26621;DHT22;14253;44.840;10.444;2023-04-16T06:59:10;14.10;99.90
26621;DHT22;14253;44.840;10.444;2023-04-16T07:01:36;14.20;99.90
26621;DHT22;14253;44.840;10.444;2023-04-16T07:04:02;14.10;99.90
26621;DHT22;14253;44.840;10.444;2023-04-16T07:06:28;14.20;99.90
26621;DHT22;14253;44.840;10.444;2023-04-16T07:08:54;14.50;99.90
26621;DHT22;14253;44.840;10.444;2023-04-16T07:11:22;15.10;99.90
26621;DHT22;14253;44.840;10.444;2023-04-16T07:13:48;15.50;99.90
26621;DHT22;14253;44.840;10.444;2023-04-16T07:16:16;15.30;99.90
26621;DHT22;14253;44.840;10.444;2023-04-16T07:18:42;15.50;99.90
26621;DHT22;14253;44.840;10.444;2023-04-16T07:21:08;15.60;99.90
26621;DHT22;14253;44.840;10.444;2023-04-16T07:23:34;15.80;99.90
26621;DHT22;14253;44.840;10.444;2023-04-16T07:26:00;16.20;99.90
26621;DHT22;14253;44.840;10.444;2023-04-16T07:28:26;16.00;99.90
26621;DHT22;14253;44.840;10.444;2023-04-16T07:30:52;16.20;99.90
26621;DHT22;14253;44.840;10.444;2023-04-16T07:33:18;16.60;99.90
26621;DHT22;14253;44.840;10.444;2023-04-16T07:35:45;17.00;99.90
26621;DHT22;14253;44.840;10.444;2023-04-16T07:38:11;17.00;99.90
26621;DHT22;14253;44.840;10.444;2023-04-16T07:40:37;17.40;99.90
26621;DHT22;14253;44.840;10.444;2023-04-16T07:43:03;17.60;99.90
26621;DHT22;14253;44.840;10.444;2023-04-16T07:45:29;17.40;99.90
26621;DHT22;14253;44.840;10.444;2023-04-16T07:47:56;17.20;99.90
26621;DHT22;14253;44.840;10.444;2023-04-16T07:50:22;17.40;99.90
26621;DHT22;14253;44.840;10.444;2023-04-16T07:52:48;17.70;99.90
26621;DHT22;14253;44.840;10.444;2023-04-16T07:55:14;18.10;99.90
26621;DHT22;14253;44.840;10.444;2023-04-16T07:57:40;18.40;99.90
26621;DHT22;14253;44.840;10.444;2023-04-16T08:00:10;18.60;99.90
26621;DHT22;14253;44.840;10.444;2023-04-16T08:02:39;19.00;99.90
26621;DHT22;14253;44.840;10.444;2023-04-16T08:05:06;18.80;99.90
26621;DHT22;14253;44.840;10.444;2023-04-16T08:07:32;19.10;99.90
26621;DHT22;14253;44.840;10.444;2023-04-16T08:09:58;18.70;99.90
26621;DHT22;14253;44.840;10.444;2023-04-16T08:12:23;18.90;99.90
26621;DHT22;14253;44.840;10.444;2023-04-16T08:14:49;19.30;99.90
26621;DHT22;14253;44.840;10.444;2023-04-16T08:17:15;19.00;99.90
26621;DHT22;14253;44.840;10.444;2023-04-16T08:19:42;18.90;99.90
26621;DHT22;14253;44.840;10.444;2023-04-16T08:22:13;18.70;99.90
26621;DHT22;14253;44.840;10.444;2023-04-16T08:24:39;19.20;99.90
26621;DHT22;14253;44.840;10.444;2023-04-16T08:27:05;19.60;99.90
26621;DHT22;14253;44.840;10.444;2023-04-16T08:29:31;20.00;99.90
26621;DHT22;14253;44.840;10.444;2023-04-16T08:31:58;20.00;99.90
26621;DHT22;14253;44.840;10.444;2023-04-16T08:34:24;20.10;99.90
26621;DHT22;14253;44.840;10.444;2023-04-16T08:36:50;19.80;99.90
26621;DHT22;14253;44.840;10.444;2023-04-16T08:39:16;19.90;99.90
26621;DHT22;14253;44.840;10.444;2023-04-16T08:41:43;19.80;99.90
26621;DHT22;14253;44.840;10.444;2023-04-16T08:44:17;20.00;99.90
26621;DHT22;14253;44.840;10.444;2023-04-16T08:46:45;20.40;99.90
26621;DHT22;14253;44.840;10.444;2023-04-16T08:49:15;20.20;99.90
26621;DHT22;14253;44.840;10.444;2023-04-16T08:51:52;19.90;99.90
26621;DHT22;14253;44.840;10.444;2023-04-16T08:54:40;19.90;99.90
26621;DHT22;14253;44.840;10.444;2023-04-16T08:57:09;20.10;99.90
26621;DHT22;14253;44.840;10.444;2023-04-16T08:59:37;20.10;99.90
26621;DHT22;14253;44.840;10.444;2023-04-16T09:02:05;20.20;99.90
26621;DHT22;14253;44.840;10.444;2023-04-16T09:04:31;20.30;99.90
26621;DHT22;14253;44.840;10.444;2023-04-16T09:06:58;20.30;99.90
26621;DHT22;14253;44.840;10.444;2023-04-16T09:09:26;20.60;99.90
26621;DHT22;14253;44.840;10.444;2023-04-16T09:11:53;20.50;99.90
26621;DHT22;14253;44.840;10.444;2023-04-16T09:14:19;20.10;99.90
26621;DHT22;14253;44.840;10.444;2023-04-16T09:16:46;19.90;99.90
26621;DHT22;14253;44.840;10.444;2023-04-16T09:19:15;19.60;99.90
26621;DHT22;14253;44.840;10.444;2023-04-16T09:21:42;19.90;99.90
26621;DHT22;14253;44.840;10.444;2023-04-16T09:24:10;19.90;99.90
26621;DHT22;14253;44.840;10.444;2023-04-16T09:26:36;20.00;99.90
26621;DHT22;14253;44.840;10.444;2023-04-16T09:29:03;20.10;99.90
26621;DHT22;14253;44.840;10.444;2023-04-16T09:31:29;20.30;99.90
26621;DHT22;14253;44.840;10.444;2023-04-16T09:34:08;20.60;99.90
26621;DHT22;14253;44.840;10.444;2023-04-16T09:36:35;20.30;99.90
26621;DHT22;14253;44.840;10.444;2023-04-16T09:39:02;20.20;99.90
26621;DHT22;14253;44.840;10.444;2023-04-16T09:41:32;20.30;99.90
26621;DHT22;14253;44.840;10.444;2023-04-16T09:44:01;20.30;99.90
26621;DHT22;14253;44.840;10.444;2023-04-16T09:46:30;20.40;99.90
26621;DHT22;14253;44.840;10.444;2023-04-16T09:48:56;20.20;99.90
26621;DHT22;14253;44.840;10.444;2023-04-16T09:51:22;20.30;99.90
26621;DHT22;14253;44.840;10.444;2023-04-16T09:53:51;20.60;99.90
26621;DHT22;14253;44.840;10.444;2023-04-16T09:56:23;20.90;99.90
26621;DHT22;14253;44.840;10.444;2023-04-16T09:58:54;21.40;99.90
26621;DHT22;14253;44.840;10.444;2023-04-16T10:01:21;21.30;99.90
26621;DHT22;14253;44.840;10.444;2023-04-16T10:03:48;21.30;99.90
26621;DHT22;14253;44.840;10.444;2023-04-16T10:06:16;21.00;99.90
26621;DHT22;14253;44.840;10.444;2023-04-16T10:08:50;20.70;99.90
26621;DHT22;14253;44.840;10.444;2023-04-16T10:11:19;20.60;99.90
26621;DHT22;14253;44.840;10.444;2023-04-16T10:13:45;20.80;99.90
26621;DHT22;14253;44.840;10.444;2023-04-16T10:16:11;20.50;99.90
26621;DHT22;14253;44.840;10.444;2023-04-16T10:18:39;20.50;99.90
26621;DHT22;14253;44.840;10.444;2023-04-16T10:21:05;20.70;99.90
26621;DHT22;14253;44.840;10.444;2023-04-16T10:23:33;20.80;99.90
26621;DHT22;14253;44.840;10.444;2023-04-16T10:26:00;20.70;99.90
26621;DHT22;14253;44.840;10.444;2023-04-16T10:28:27;20.80;99.90
26621;DHT22;14253;44.840;10.444;2023-04-16T10:30:56;20.60;99.90
26621;DHT22;14253;44.840;10.444;2023-04-16T10:33:28;20.70;99.90
26621;DHT22;14253;44.840;10.444;2023-04-16T10:36:21;20.90;99.90
26621;DHT22;14253;44.840;10.444;2023-04-16T10:38:51;20.90;99.90
26621;DHT22;14253;44.840;10.444;2023-04-16T10:41:19;20.90;99.90
26621;DHT22;14253;44.840;10.444;2023-04-16T10:43:47;20.80;99.90
26621;DHT22;14253;44.840;10.444;2023-04-16T10:46:23;20.80;99.90
26621;DHT22;14253;44.840;10.444;2023-04-16T10:48:52;21.20;99.90
26621;DHT22;14253;44.840;10.444;2023-04-16T10:51:27;21.00;99.90
26621;DHT22;14253;44.840;10.444;2023-04-16T10:53:56;21.20;99.90
26621;DHT22;14253;44.840;10.444;2023-04-16T10:56:23;21.20;99.90
26621;DHT22;14253;44.840;10.444;2023-04-16T10:58:49;21.00;99.90
26621;DHT22;14253;44.840;10.444;2023-04-16T11:01:17;21.10;99.90
26621;DHT22;14253;44.840;10.444;2023-04-16T11:03:47;21.00;99.90
26621;DHT22;14253;44.840;10.444;2023-04-16T11:06:22;21.20;99.90
26621;DHT22;14253;44.840;10.444;2023-04-16T11:08:52;20.80;99.90
26621;DHT22;14253;44.840;10.444;2023-04-16T11:11:20;20.40;99.90
26621;DHT22;14253;44.840;10.444;2023-04-16T11:13:46;20.40;99.90
26621;DHT22;14253;44.840;10.444;2023-04-16T11:16:13;20.70;99.90
26621;DHT22;14253;44.840;10.444;2023-04-16T11:18:39;20.80;99.90
26621;DHT22;14253;44.840;10.444;2023-04-16T11:21:11;20.80;99.90
26621;DHT22;14253;44.840;10.444;2023-04-16T11:23:51;21.00;99.90
26621;DHT22;14253;44.840;10.444;2023-04-16T11:26:27;20.90;99.90
26621;DHT22;14253;44.840;10.444;2023-04-16T11:28:54;20.80;99.90
26621;DHT22;14253;44.840;10.444;2023-04-16T11:31:21;21.20;99.90
26621;DHT22;14253;44.840;10.444;2023-04-16T11:33:48;21.20;99.90
26621;DHT22;14253;44.840;10.444;2023-04-16T11:36:14;20.90;99.90
26621;DHT22;14253;44.840;10.444;2023-04-16T11:38:40;20.90;99.90
26621;DHT22;14253;44.840;10.444;2023-04-16T11:43:20;21.30;99.90
26621;DHT22;14253;44.840;10.444;2023-04-16T11:46:00;21.30;99.90
26621;DHT22;14253;44.840;10.444;2023-04-16T11:48:45;21.20;99.90
26621;DHT22;14253;44.840;10.444;2023-04-16T11:51:12;21.00;99.90
26621;DHT22;14253;44.840;10.444;2023-04-16T11:53:46;21.10;99.90
26621;DHT22;14253;44.840;10.444;2023-04-16T11:56:12;20.90;99.90
26621;DHT22;14253;44.840;10.444;2023-04-16T11:58:38;21.00;99.90
26621;DHT22;14253;44.840;10.444;2023-04-16T12:01:04;21.10;99.90
26621;DHT22;14253;44.840;10.444;2023-04-16T12:03:40;21.00;99.90
26621;DHT22;14253;44.840;10.444;2023-04-16T12:06:12;21.20;99.90
26621;DHT22;14253;44.840;10.444;2023-04-16T12:08:38;21.20;99.90
26621;DHT22;14253;44.840;10.444;2023-04-16T12:11:04;21.10;99.90
26621;DHT22;14253;44.840;10.444;2023-04-16T12:13:30;21.00;99.90
26621;DHT22;14253;44.840;10.444;2023-04-16T12:16:15;21.10;99.90
26621;DHT22;14253;44.840;10.444;2023-04-16T12:18:58;21.10;99.90
26621;DHT22;14253;44.840;10.444;2023-04-16T12:21:38;21.10;99.90
26621;DHT22;14253;44.840;10.444;2023-04-16T12:24:05;21.30;99.90
26621;DHT22;14253;44.840;10.444;2023-04-16T12:29:18;21.80;99.90
26621;DHT22;14253;44.840;10.444;2023-04-16T12:31:45;21.90;99.90
26621;DHT22;14253;44.840;10.444;2023-04-16T12:34:12;21.70;99.90
26621;DHT22;14253;44.840;10.444;2023-04-16T12:36:43;21.40;99.90
26621;DHT22;14253;44.840;10.444;2023-04-16T12:39:11;21.40;99.90
26621;DHT22;14253;44.840;10.444;2023-04-16T12:41:38;21.40;99.90
26621;DHT22;14253;44.840;10.444;2023-04-16T12:44:25;21.00;99.90
26621;DHT22;14253;44.840;10.444;2023-04-16T12:46:52;21.00;99.90
26621;DHT22;14253;44.840;10.444;2023-04-16T12:49:18;20.90;99.90
26621;DHT22;14253;44.840;10.444;2023-04-16T12:51:44;21.00;99.90
26621;DHT22;14253;44.840;10.444;2023-04-16T12:54:11;21.10;99.90
26621;DHT22;14253;44.840;10.444;2023-04-16T12:56:38;21.40;99.90
26621;DHT22;14253;44.840;10.444;2023-04-16T12:59:04;21.50;99.90
26621;DHT22;14253;44.840;10.444;2023-04-16T13:01:30;21.40;99.90
26621;DHT22;14253;44.840;10.444;2023-04-16T13:03:56;21.30;99.90
26621;DHT22;14253;44.840;10.444;2023-04-16T13:06:22;21.20;99.90
26621;DHT22;14253;44.840;10.444;2023-04-16T13:08:48;21.00;99.90
26621;DHT22;14253;44.840;10.444;2023-04-16T13:11:14;20.80;99.90
26621;DHT22;14253;44.840;10.444;2023-04-16T13:13:40;20.80;99.90
26621;DHT22;14253;44.840;10.444;2023-04-16T13:16:06;20.90;99.90
26621;DHT22;14253;44.840;10.444;2023-04-16T13:18:33;21.20;99.90
26621;DHT22;14253;44.840;10.444;2023-04-16T13:20:59;21.30;99.90
26621;DHT22;14253;44.840;10.444;2023-04-16T13:23:25;21.60;99.90
26621;DHT22;14253;44.840;10.444;2023-04-16T13:25:52;21.70;99.90
26621;DHT22;14253;44.840;10.444;2023-04-16T13:28:18;21.70;99.90
26621;DHT22;14253;44.840;10.444;2023-04-16T13:30:44;21.70;99.90
26621;DHT22;14253;44.840;10.444;2023-04-16T13:33:11;21.80;99.90
26621;DHT22;14253;44.840;10.444;2023-04-16T13:35:37;21.80;99.90
26621;DHT22;14253;44.840;10.444;2023-04-16T13:38:04;21.80;99.90
26621;DHT22;14253;44.840;10.444;2023-04-16T13:40:30;21.70;99.90
26621;DHT22;14253;44.840;10.444;2023-04-16T13:42:56;21.90;99.90
26621;DHT22;14253;44.840;10.444;2023-04-16T13:45:22;21.80;99.90
26621;DHT22;14253;44.840;10.444;2023-04-16T13:47:48;21.80;99.90
26621;DHT22;14253;44.840;10.444;2023-04-16T13:50:14;21.70;99.90
26621;DHT22;14253;44.840;10.444;2023-04-16T13:52:40;21.80;99.90
26621;DHT22;14253;44.840;10.444;2023-04-16T13:55:07;21.90;99.90
26621;DHT22;14253;44.840;10.444;2023-04-16T13:57:34;22.10;99.90
26621;DHT22;14253;44.840;10.444;2023-04-16T14:00:01;22.20;99.90
26621;DHT22;14253;44.840;10.444;2023-04-16T14:02:27;22.20;99.90
26621;DHT22;14253;44.840;10.444;2023-04-16T14:04:53;22.40;99.90
26621;DHT22;14253;44.840;10.444;2023-04-16T14:07:19;22.40;99.90
26621;DHT22;14253;44.840;10.444;2023-04-16T14:09:47;22.30;99.90
26621;DHT22;14253;44.840;10.444;2023-04-16T14:12:13;22.30;99.90
26621;DHT22;14253;44.840;10.444;2023-04-16T14:14:39;22.20;99.90
26621;DHT22;14253;44.840;10.444;2023-04-16T14:17:06;22.10;99.90
26621;DHT22;14253;44.840;10.444;2023-04-16T14:19:32;22.00;99.90
26621;DHT22;14253;44.840;10.444;2023-04-16T14:21:58;21.90;99.90
26621;DHT22;14253;44.840;10.444;2023-04-16T14:24:24;22.00;99.90
26621;DHT22;14253;44.840;10.444;2023-04-16T14:26:50;22.00;99.90
26621;DHT22;14253;44.840;10.444;2023-04-16T14:29:16;22.10;99.90
26621;DHT22;14253;44.840;10.444;2023-04-16T14:31:42;22.10;99.90
26621;DHT22;14253;44.840;10.444;2023-04-16T14:34:12;21.90;99.90
26621;DHT22;14253;44.840;10.444;2023-04-16T14:36:40;22.10;99.90
26621;DHT22;14253;44.840;10.444;2023-04-16T14:39:06;22.00;99.90
26621;DHT22;14253;44.840;10.444;2023-04-16T14:41:43;21.90;99.90
26621;DHT22;14253;44.840;10.444;2023-04-16T14:44:21;22.10;99.90
26621;DHT22;14253;44.840;10.444;2023-04-16T14:46:53;22.00;99.90
26621;DHT22;14253;44.840;10.444;2023-04-16T14:49:20;21.90;99.90
26621;DHT22;14253;44.840;10.444;2023-04-16T14:52:15;21.80;99.90
26621;DHT22;14253;44.840;10.444;2023-04-16T14:54:47;21.50;99.90
26621;DHT22;14253;44.840;10.444;2023-04-16T14:57:20;21.50;99.90
26621;DHT22;14253;44.840;10.444;2023-04-16T14:59:49;21.70;99.90
26621;DHT22;14253;44.840;10.444;2023-04-16T15:02:18;21.70;99.90
26621;DHT22;14253;44.840;10.444;2023-04-16T15:04:44;21.90;99.90
26621;DHT22;14253;44.840;10.444;2023-04-16T15:07:11;22.00;99.90
26621;DHT22;14253;44.840;10.444;2023-04-16T15:09:37;22.10;99.90
26621;DHT22;14253;44.840;10.444;2023-04-16T15:12:03;22.20;99.90
26621;DHT22;14253;44.840;10.444;2023-04-16T15:14:29;22.00;99.90
26621;DHT22;14253;44.840;10.444;2023-04-16T15:16:55;21.90;99.90
26621;DHT22;14253;44.840;10.444;2023-04-16T15:19:21;21.80;99.90
26621;DHT22;14253;44.840;10.444;2023-04-16T15:21:47;22.10;99.90
26621;DHT22;14253;44.840;10.444;2023-04-16T15:24:13;22.20;99.90
26621;DHT22;14253;44.840;10.444;2023-04-16T15:26:44;22.30;99.90
26621;DHT22;14253;44.840;10.444;2023-04-16T15:29:15;22.10;99.90